Time;durP1;ratioP1;P1;durP2;ratioP2;P2;SDS_P1;SDS_P2;PMS_P1;PMS_P2;Temp;Humidity;BMP_temperature;BMP_pressure;BME280_temperature;BME280_humidity;BME280_pressure;Samples;Min_cycle;Max_cycle;Signal;HPM_P1;HPM_P2
2023/12/05 00:00:44;;;;;;;30.00;18.60;;;1.90;99.90;;;;;;5045592;28;20206;-60
2023/12/05 00:03:12;;;;;;;28.75;18.23;;;1.90;99.90;;;;;;5042115;28;20229;-59
2023/12/05 00:05:41;;;;;;;32.08;19.45;;;1.80;99.90;;;;;;5047746;28;20205;-58
2023/12/05 00:08:10;;;;;;;34.75;20.00;;;1.80;99.90;;;;;;5054754;28;20210;-59
2023/12/05 00:10:38;;;;;;;32.10;18.00;;;1.80;99.90;;;;;;5053286;28;20206;-59
2023/12/05 00:13:07;;;;;;;33.45;19.65;;;1.80;99.90;;;;;;5048656;28;20321;-58
2023/12/05 00:15:35;;;;;;;29.08;18.17;;;1.80;99.90;;;;;;5053088;28;20226;-59
2023/12/05 00:18:03;;;;;;;30.42;18.70;;;1.80;99.90;;;;;;5053321;28;20592;-58
2023/12/05 00:20:31;;;;;;;32.78;18.67;;;1.80;99.90;;;;;;5053495;28;20248;-59
2023/12/05 00:22:58;;;;;;;31.98;19.05;;;1.80;99.90;;;;;;5052816;28;20710;-58
2023/12/05 00:25:28;;;;;;;32.28;19.95;;;1.80;99.90;;;;;;5053280;28;20201;-59
2023/12/05 00:27:56;;;;;;;31.00;19.02;;;1.90;99.90;;;;;;5052806;28;20210;-59
2023/12/05 00:30:24;;;;;;;31.83;18.63;;;1.90;99.90;;;;;;5053432;28;20683;-59
2023/12/05 00:32:52;;;;;;;32.95;19.60;;;1.90;99.90;;;;;;5053059;28;20232;-59
2023/12/05 00:35:20;;;;;;;31.15;18.88;;;1.80;99.90;;;;;;5053156;28;20222;-59
2023/12/05 00:37:48;;;;;;;29.92;19.08;;;1.90;99.90;;;;;;5052878;28;20293;-59
2023/12/05 00:40:16;;;;;;;33.38;19.38;;;1.90;99.90;;;;;;5052923;28;20242;-59
2023/12/05 00:42:45;;;;;;;31.25;19.10;;;1.90;99.90;;;;;;5051990;28;20280;-59
2023/12/05 00:45:13;;;;;;;31.30;18.80;;;1.90;99.90;;;;;;5052458;28;20205;-59
2023/12/05 00:47:41;;;;;;;39.40;21.52;;;1.90;99.90;;;;;;5052781;28;20205;-59
2023/12/05 00:50:10;;;;;;;34.22;19.70;;;1.90;99.90;;;;;;5053028;28;20206;-59
2023/12/05 00:52:38;;;;;;;35.50;19.23;;;1.90;99.90;;;;;;5052371;28;20310;-58
2023/12/05 00:55:06;;;;;;;36.75;20.42;;;1.90;99.90;;;;;;5052647;28;20264;-59
2023/12/05 00:57:34;;;;;;;32.65;19.65;;;1.90;99.90;;;;;;5052725;28;20243;-59
2023/12/05 01:00:04;;;;;;;33.45;19.25;;;1.90;99.90;;;;;;5052853;28;20236;-59
2023/12/05 01:02:32;;;;;;;36.90;20.05;;;1.80;99.90;;;;;;5052360;28;20218;-58
2023/12/05 01:04:59;;;;;;;37.50;20.83;;;1.80;99.90;;;;;;5052546;28;20237;-59
2023/12/05 01:07:28;;;;;;;36.63;20.90;;;1.80;99.90;;;;;;5052259;28;20202;-59
2023/12/05 01:09:56;;;;;;;33.70;20.60;;;1.80;99.90;;;;;;5052463;28;20264;-58
2023/12/05 01:12:24;;;;;;;34.30;19.77;;;1.80;99.90;;;;;;5015137;28;1064774;-59
2023/12/05 01:14:52;;;;;;;32.03;19.70;;;1.90;99.90;;;;;;5053612;28;20695;-58
2023/12/05 01:17:21;;;;;;;36.72;19.63;;;1.80;99.90;;;;;;5053255;28;20205;-59
2023/12/05 01:19:49;;;;;;;32.67;19.63;;;1.80;99.90;;;;;;5053350;28;20206;-59
2023/12/05 01:22:17;;;;;;;33.58;19.73;;;1.80;99.90;;;;;;5053095;28;20605;-58
2023/12/05 01:24:45;;;;;;;34.47;21.33;;;1.90;99.90;;;;;;5053495;28;20202;-59
2023/12/05 01:27:13;;;;;;;36.53;21.05;;;1.90;99.90;;;;;;5053286;28;20765;-58
2023/12/05 01:29:40;;;;;;;30.98;19.85;;;1.90;99.90;;;;;;5053062;28;20678;-59
2023/12/05 01:32:08;;;;;;;35.03;21.02;;;1.90;99.90;;;;;;5053200;28;20245;-59
2023/12/05 01:34:37;;;;;;;39.72;20.63;;;1.90;99.90;;;;;;5052880;28;20254;-58
2023/12/05 01:37:05;;;;;;;35.53;21.00;;;1.90;99.90;;;;;;5053263;28;20202;-59
2023/12/05 01:39:33;;;;;;;32.22;20.33;;;1.90;99.90;;;;;;5053094;28;20259;-59
2023/12/05 01:42:01;;;;;;;34.05;20.30;;;1.90;99.90;;;;;;5052976;28;20228;-59
2023/12/05 01:44:29;;;;;;;33.42;20.38;;;1.90;99.90;;;;;;5052817;28;20256;-59
2023/12/05 01:46:57;;;;;;;36.00;21.63;;;1.90;99.90;;;;;;5052730;28;20236;-59
2023/12/05 01:49:25;;;;;;;38.55;21.80;;;1.90;99.90;;;;;;5052809;28;20206;-59
2023/12/05 01:51:58;;;;;;;32.58;19.75;;;1.90;99.90;;;;;;5052719;28;20985;-59
2023/12/05 01:54:26;;;;;;;36.95;21.25;;;1.90;99.90;;;;;;5052002;28;20703;-59
2023/12/05 01:56:55;;;;;;;37.85;20.77;;;1.90;99.90;;;;;;5052595;28;20212;-58
2023/12/05 01:59:22;;;;;;;32.40;20.17;;;1.90;99.90;;;;;;5052525;28;20234;-58
2023/12/05 02:01:50;;;;;;;35.83;20.83;;;1.90;99.90;;;;;;5052411;28;20202;-59
2023/12/05 02:04:18;;;;;;;32.70;20.35;;;1.90;99.90;;;;;;5052539;28;20222;-59
2023/12/05 02:06:46;;;;;;;33.95;20.55;;;1.90;99.90;;;;;;5052603;28;20242;-59
2023/12/05 02:09:16;;;;;;;33.47;19.90;;;1.90;99.90;;;;;;5052470;28;20206;-58
2023/12/05 02:11:44;;;;;;;32.30;19.65;;;1.90;99.90;;;;;;5052284;28;20213;-58
2023/12/05 02:14:12;;;;;;;36.40;19.75;;;1.90;99.90;;;;;;5052019;28;20226;-59
2023/12/05 02:16:43;;;;;;;35.22;20.98;;;1.90;99.90;;;;;;5052117;28;20612;-59
2023/12/05 02:19:30;;;;;;;32.40;20.38;;;1.90;99.90;;;;;;5052113;28;20736;-60
2023/12/05 02:21:58;;;;;;;33.72;18.73;;;1.90;99.90;;;;;;5052179;28;20279;-59
2023/12/05 02:24:36;;;;;;;31.98;19.85;;;1.90;99.90;;;;;;5051837;28;20221;-60
2023/12/05 02:27:09;;;;;;;35.20;21.08;;;2.00;99.90;;;;;;5051949;28;20671;-58
2023/12/05 02:29:47;;;;;;;38.15;20.13;;;1.90;99.90;;;;;;5051800;28;20230;-59
2023/12/05 02:32:15;;;;;;;31.35;20.45;;;1.90;99.90;;;;;;5052001;28;20292;-59
2023/12/05 02:34:43;;;;;;;33.90;19.63;;;1.90;99.90;;;;;;5051436;28;20294;-58
2023/12/05 02:37:17;;;;;;;34.58;20.02;;;1.90;99.90;;;;;;5051780;28;20663;-58
2023/12/05 02:39:48;;;;;;;36.33;21.20;;;2.00;99.90;;;;;;5044622;28;20670;-58
2023/12/05 02:42:17;;;;;;;33.80;20.35;;;2.00;99.90;;;;;;5051737;28;20202;-59
2023/12/05 02:44:50;;;;;;;30.08;19.88;;;2.00;99.90;;;;;;5051636;28;20664;-59
2023/12/05 02:47:18;;;;;;;32.42;19.35;;;2.00;99.90;;;;;;5052002;28;20233;-59
2023/12/05 02:49:46;;;;;;;33.42;20.80;;;2.00;99.90;;;;;;5051705;28;20242;-59
2023/12/05 02:52:14;;;;;;;32.75;19.60;;;2.00;99.90;;;;;;5043339;28;20297;-59
2023/12/05 02:54:42;;;;;;;34.97;19.33;;;2.00;99.90;;;;;;5051603;28;20241;-59
2023/12/05 02:57:10;;;;;;;32.25;19.48;;;2.00;99.90;;;;;;5043551;28;20228;-59
2023/12/05 02:59:38;;;;;;;32.65;20.13;;;2.00;99.90;;;;;;5051599;28;20230;-59
2023/12/05 03:02:07;;;;;;;36.35;20.73;;;2.00;99.90;;;;;;5051617;28;20632;-59
2023/12/05 03:04:35;;;;;;;30.70;18.88;;;2.00;99.90;;;;;;5051543;28;20206;-60
2023/12/05 03:07:03;;;;;;;33.55;19.77;;;2.00;99.90;;;;;;5050687;28;20205;-59
2023/12/05 03:09:31;;;;;;;38.00;20.02;;;2.00;99.90;;;;;;5051239;28;20220;-59
2023/12/05 03:11:59;;;;;;;32.25;20.55;;;2.00;99.90;;;;;;5051578;28;20210;-59
2023/12/05 03:14:27;;;;;;;34.95;20.42;;;2.00;99.90;;;;;;5051115;28;20237;-60
2023/12/05 03:16:56;;;;;;;31.77;19.20;;;2.00;99.90;;;;;;5051317;28;20272;-59
2023/12/05 03:19:26;;;;;;;33.58;19.85;;;2.00;99.90;;;;;;5051274;28;20630;-59
2023/12/05 03:21:54;;;;;;;30.35;19.10;;;2.00;99.90;;;;;;5051230;28;20651;-59
2023/12/05 03:24:22;;;;;;;29.77;19.38;;;2.00;99.90;;;;;;5051068;28;20221;-58
2023/12/05 03:26:50;;;;;;;32.38;19.80;;;2.00;99.90;;;;;;5051464;28;20205;-58
2023/12/05 03:29:18;;;;;;;34.55;19.05;;;2.00;99.90;;;;;;5051144;28;20205;-58
2023/12/05 03:31:46;;;;;;;36.65;20.20;;;2.00;99.90;;;;;;5051246;28;20301;-59
2023/12/05 03:34:14;;;;;;;33.55;19.17;;;2.00;99.90;;;;;;5051078;28;20312;-59
2023/12/05 03:36:43;;;;;;;36.13;19.48;;;1.90;99.90;;;;;;5051065;28;20226;-58
2023/12/05 03:39:11;;;;;;;32.90;19.25;;;2.00;99.90;;;;;;5051197;28;20206;-59
2023/12/05 03:41:39;;;;;;;32.00;18.92;;;1.90;99.90;;;;;;5051306;28;20653;-59
2023/12/05 03:44:07;;;;;;;31.63;18.85;;;2.00;99.90;;;;;;5050961;28;20268;-60
2023/12/05 03:46:34;;;;;;;32.05;19.13;;;2.00;99.90;;;;;;5051161;28;20821;-59
2023/12/05 03:49:02;;;;;;;31.75;19.38;;;2.00;99.90;;;;;;5050817;28;20287;-59
2023/12/05 03:51:31;;;;;;;31.73;19.08;;;2.00;99.90;;;;;;5051164;28;20339;-58
2023/12/05 03:54:00;;;;;;;36.60;19.52;;;1.90;99.90;;;;;;5050971;28;20280;-59
2023/12/05 03:56:28;;;;;;;32.45;18.50;;;2.00;99.90;;;;;;5051105;28;20310;-59
2023/12/05 03:58:56;;;;;;;30.30;18.42;;;1.90;99.90;;;;;;5050879;28;20222;-59
2023/12/05 04:01:23;;;;;;;32.63;18.48;;;1.90;99.90;;;;;;5050819;28;20698;-59
2023/12/05 04:03:51;;;;;;;29.38;17.92;;;1.90;99.90;;;;;;5050559;28;20258;-59
2023/12/05 04:06:20;;;;;;;30.98;17.75;;;1.90;99.90;;;;;;5051050;28;20202;-59
2023/12/05 04:08:49;;;;;;;27.60;17.35;;;1.90;99.90;;;;;;5050703;28;20293;-59
2023/12/05 04:11:18;;;;;;;31.42;17.90;;;1.90;99.90;;;;;;5050968;28;20651;-59
2023/12/05 04:13:46;;;;;;;33.70;17.30;;;2.00;99.90;;;;;;5050378;28;20234;-59
2023/12/05 04:16:14;;;;;;;26.88;17.13;;;2.00;99.90;;;;;;5034929;28;20800;-59
2023/12/05 04:18:41;;;;;;;25.83;15.32;;;2.00;99.90;;;;;;5052898;28;20289;-59
2023/12/05 04:21:09;;;;;;;27.35;15.77;;;2.00;99.90;;;;;;5054645;28;20248;-59
2023/12/05 04:23:37;;;;;;;22.92;14.00;;;2.10;99.90;;;;;;5054253;28;20312;-57
2023/12/05 04:26:06;;;;;;;25.20;14.90;;;2.20;99.90;;;;;;5054341;28;20229;-59
2023/12/05 04:28:35;;;;;;;23.45;14.30;;;2.20;99.90;;;;;;5054202;28;20206;-58
2023/12/05 04:31:03;;;;;;;22.48;13.13;;;2.30;99.90;;;;;;5054329;28;20272;-59
2023/12/05 04:33:31;;;;;;;21.90;14.07;;;2.40;99.90;;;;;;5053984;28;20224;-59
2023/12/05 04:35:59;;;;;;;24.38;14.48;;;2.50;99.90;;;;;;5054041;28;20213;-58
2023/12/05 04:38:27;;;;;;;21.25;13.48;;;2.50;99.90;;;;;;5054163;28;20202;-59
2023/12/05 04:40:55;;;;;;;19.02;12.40;;;2.60;99.90;;;;;;5054232;28;20218;-59
2023/12/05 04:43:23;;;;;;;22.92;13.30;;;2.60;99.90;;;;;;5053735;28;20229;-59
2023/12/05 04:45:52;;;;;;;21.60;13.02;;;2.60;99.90;;;;;;5054146;28;20205;-59
2023/12/05 04:48:20;;;;;;;22.10;13.30;;;2.60;99.90;;;;;;5054048;28;20202;-58
2023/12/05 04:50:48;;;;;;;20.77;12.82;;;2.60;99.90;;;;;;5054156;28;20305;-59
2023/12/05 04:53:16;;;;;;;18.13;12.77;;;2.60;99.90;;;;;;5053649;28;20309;-59
2023/12/05 04:55:44;;;;;;;21.65;12.15;;;2.60;99.90;;;;;;5053806;28;20216;-59
2023/12/05 04:58:12;;;;;;;17.88;11.35;;;2.70;99.90;;;;;;5053739;28;20281;-60
2023/12/05 05:00:40;;;;;;;15.50;11.55;;;2.70;99.90;;;;;;5054036;28;20256;-59
2023/12/05 05:03:09;;;;;;;19.83;12.50;;;2.70;99.90;;;;;;5053464;28;20307;-59
2023/12/05 05:05:37;;;;;;;20.50;12.32;;;2.70;99.90;;;;;;5053648;28;20673;-59
2023/12/05 05:08:05;;;;;;;14.98;11.55;;;2.70;99.90;;;;;;5053394;28;20580;-59
2023/12/05 05:10:33;;;;;;;16.52;11.32;;;2.70;99.90;;;;;;5053699;28;20260;-59
2023/12/05 05:13:01;;;;;;;18.27;11.65;;;2.70;99.90;;;;;;5053218;28;20695;-59
2023/12/05 05:15:29;;;;;;;22.58;12.85;;;2.60;99.90;;;;;;5053566;28;20297;-59
2023/12/05 05:17:57;;;;;;;15.50;11.35;;;2.60;99.90;;;;;;5053428;28;20230;-59
2023/12/05 05:20:27;;;;;;;18.23;11.65;;;2.60;99.90;;;;;;5036541;28;20294;-59
2023/12/05 05:22:54;;;;;;;21.30;11.70;;;2.70;99.90;;;;;;5029550;28;20645;-58
2023/12/05 05:25:22;;;;;;;20.08;12.82;;;2.60;99.90;;;;;;5031934;28;20226;-59
2023/12/05 05:27:50;;;;;;;16.83;12.05;;;2.60;99.90;;;;;;5029145;28;20211;-58
2023/12/05 05:30:18;;;;;;;14.85;11.20;;;2.70;99.90;;;;;;5031514;28;20257;-59
2023/12/05 05:32:46;;;;;;;17.60;12.05;;;2.70;99.90;;;;;;5033894;28;20773;-58
2023/12/05 05:35:14;;;;;;;17.30;11.27;;;2.70;99.90;;;;;;5031497;28;20210;-59
2023/12/05 05:37:43;;;;;;;15.98;11.35;;;2.70;99.90;;;;;;5032956;28;20288;-58
2023/12/05 05:40:12;;;;;;;17.58;11.40;;;2.70;99.90;;;;;;5044008;28;20275;-59
2023/12/05 05:42:39;;;;;;;18.90;11.93;;;2.60;99.90;;;;;;5041224;28;20313;-59
2023/12/05 05:45:09;;;;;;;16.65;11.27;;;2.60;99.90;;;;;;5030096;28;20260;-59
2023/12/05 05:47:36;;;;;;;15.07;10.15;;;2.60;99.90;;;;;;5032946;28;20281;-59
2023/12/05 05:50:05;;;;;;;16.23;11.52;;;2.60;99.90;;;;;;5031626;28;20203;-58
2023/12/05 05:52:33;;;;;;;14.30;10.05;;;2.60;99.90;;;;;;5030820;28;20225;-60
2023/12/05 05:55:03;;;;;;;19.90;10.98;;;2.60;99.90;;;;;;5028621;28;20265;-59
2023/12/05 05:57:32;;;;;;;16.10;10.27;;;2.60;99.90;;;;;;5026583;28;20259;-59
2023/12/05 05:59:59;;;;;;;19.98;11.52;;;2.60;99.90;;;;;;5032383;28;20206;-59
2023/12/05 06:02:27;;;;;;;19.05;11.23;;;2.60;99.90;;;;;;5045318;28;20209;-59
2023/12/05 06:04:55;;;;;;;19.05;11.05;;;2.60;99.90;;;;;;5052456;28;20202;-59
2023/12/05 06:07:24;;;;;;;16.13;10.35;;;2.60;99.90;;;;;;5052629;28;20202;-60
2023/12/05 06:09:52;;;;;;;15.07;9.93;;;2.60;99.90;;;;;;5052365;28;20279;-59
2023/12/05 06:12:21;;;;;;;16.95;10.85;;;2.60;99.90;;;;;;5035820;28;20252;-59
2023/12/05 06:14:49;;;;;;;13.35;9.98;;;2.60;99.90;;;;;;5052294;28;20651;-60
2023/12/05 06:17:17;;;;;;;15.57;10.57;;;2.70;99.90;;;;;;5052144;28;20642;-60
2023/12/05 06:19:45;;;;;;;17.85;10.32;;;2.70;99.90;;;;;;5052444;28;20619;-60
2023/12/05 06:22:13;;;;;;;16.70;10.00;;;2.80;99.90;;;;;;5052236;28;20217;-60
2023/12/05 06:24:41;;;;;;;17.10;10.13;;;2.80;99.90;;;;;;5052235;28;20206;-59
2023/12/05 06:27:09;;;;;;;15.85;10.45;;;2.80;99.90;;;;;;5052144;28;20239;-59
2023/12/05 06:29:38;;;;;;;13.95;9.48;;;2.80;99.90;;;;;;5051921;28;20213;-60
2023/12/05 06:32:06;;;;;;;12.05;9.35;;;2.80;99.90;;;;;;5052186;28;20206;-60
2023/12/05 06:34:34;;;;;;;12.93;9.32;;;2.80;99.90;;;;;;5051922;28;20316;-59
2023/12/05 06:37:02;;;;;;;13.00;9.45;;;2.80;99.90;;;;;;5051751;28;20702;-59
2023/12/05 06:39:30;;;;;;;14.63;10.02;;;2.80;99.90;;;;;;5051891;28;20630;-60
2023/12/05 06:41:58;;;;;;;16.25;9.40;;;2.80;99.90;;;;;;5050180;28;20206;-59
2023/12/05 06:44:26;;;;;;;12.38;8.63;;;2.80;99.90;;;;;;5051654;28;20262;-58
2023/12/05 06:46:55;;;;;;;11.98;9.07;;;2.80;99.90;;;;;;5051708;28;20706;-58
2023/12/05 06:49:23;;;;;;;12.38;9.07;;;2.80;99.90;;;;;;5051716;28;20372;-60
2023/12/05 06:51:57;;;;;;;15.23;8.80;;;2.90;99.90;;;;;;5051644;28;20201;-60
2023/12/05 06:54:25;;;;;;;10.25;7.55;;;2.90;99.90;;;;;;5051436;28;20217;-60
2023/12/05 06:56:53;;;;;;;12.25;7.60;;;3.00;99.90;;;;;;5051492;28;20210;-60
2023/12/05 06:59:21;;;;;;;10.43;7.95;;;2.90;99.90;;;;;;5051555;28;20675;-62
2023/12/05 07:01:49;;;;;;;14.63;7.60;;;2.90;99.90;;;;;;5051440;28;20695;-62
2023/12/05 07:04:18;;;;;;;10.30;6.90;;;2.90;99.90;;;;;;5051339;28;20260;-62
2023/12/05 07:06:47;;;;;;;12.98;7.88;;;2.90;99.90;;;;;;5028388;28;20730;-62
2023/12/05 07:09:15;;;;;;;11.95;8.30;;;2.90;99.90;;;;;;5026673;28;20203;-62
2023/12/05 07:11:43;;;;;;;11.52;7.70;;;2.90;99.90;;;;;;5039828;28;20551;-61
2023/12/05 07:14:13;;;;;;;9.18;7.07;;;2.90;99.90;;;;;;5069165;22;20671;-73
2023/12/05 07:16:41;;;;;;;9.70;6.82;;;2.90;99.90;;;;;;5051626;28;20680;-74
2023/12/05 07:19:08;;;;;;;11.85;8.10;;;2.90;99.90;;;;;;5051008;28;20253;-75
2023/12/05 07:21:38;;;;;;;12.27;7.90;;;2.90;99.90;;;;;;5064815;28;20264;-74
2023/12/05 07:24:06;;;;;;;8.80;6.93;;;2.90;99.90;;;;;;5071737;28;20197;-75
2023/12/05 07:26:34;;;;;;;11.25;7.15;;;2.90;99.90;;;;;;5071965;28;20228;-74
2023/12/05 07:29:02;;;;;;;13.00;7.85;;;3.00;99.90;;;;;;5071811;28;20209;-74
2023/12/05 07:31:30;;;;;;;16.30;8.13;;;3.00;99.90;;;;;;5071405;28;20232;-75
2023/12/05 07:33:58;;;;;;;11.65;7.85;;;3.10;99.90;;;;;;5070264;28;20201;-74
2023/12/05 07:36:26;;;;;;;10.38;7.30;;;3.10;99.90;;;;;;5063386;28;20212;-75
2023/12/05 07:38:55;;;;;;;16.63;8.88;;;3.20;99.90;;;;;;5062597;28;20232;-75
2023/12/05 07:41:23;;;;;;;13.73;8.02;;;3.20;99.90;;;;;;5071588;28;20601;-73
2023/12/05 07:43:51;;;;;;;12.60;7.80;;;3.30;99.90;;;;;;5071274;28;20726;-74
2023/12/05 07:46:19;;;;;;;12.80;7.22;;;3.40;99.90;;;;;;5071455;28;20292;-75
2023/12/05 07:48:47;;;;;;;13.90;7.70;;;3.40;99.90;;;;;;5071286;28;20217;-74
2023/12/05 07:51:16;;;;;;;17.83;8.70;;;3.40;99.90;;;;;;5071796;28;20319;-75
2023/12/05 07:53:45;;;;;;;12.15;8.38;;;3.40;99.90;;;;;;5073411;28;20209;-74
2023/12/05 07:56:14;;;;;;;10.45;6.97;;;3.40;99.90;;;;;;5074771;28;20316;-75
2023/12/05 07:58:42;;;;;;;9.73;6.68;;;3.40;99.90;;;;;;5075356;28;20710;-74
2023/12/05 08:01:10;;;;;;;9.38;6.57;;;3.40;99.90;;;;;;5075272;28;20282;-74
2023/12/05 08:03:38;;;;;;;7.20;6.50;;;3.40;99.90;;;;;;5075428;28;20323;-73
2023/12/05 08:06:07;;;;;;;11.13;7.43;;;3.40;99.90;;;;;;5075456;28;20205;-74
2023/12/05 08:08:35;;;;;;;8.60;6.93;;;3.40;99.90;;;;;;5075305;28;20233;-75
2023/12/05 08:11:03;;;;;;;8.30;6.45;;;3.40;99.90;;;;;;5075225;28;20229;-74
2023/12/05 08:13:33;;;;;;;7.90;6.57;;;3.40;99.90;;;;;;5074928;28;20237;-75
2023/12/05 08:16:00;;;;;;;9.70;7.20;;;3.40;99.90;;;;;;5074927;28;20209;-75
2023/12/05 08:18:28;;;;;;;9.65;6.45;;;3.40;99.90;;;;;;5074692;28;20596;-74
2023/12/05 08:20:56;;;;;;;9.55;7.43;;;3.50;99.90;;;;;;5074948;28;20732;-74
2023/12/05 08:23:24;;;;;;;11.00;6.63;;;3.60;99.90;;;;;;5074771;28;20237;-73
2023/12/05 08:25:52;;;;;;;9.95;6.75;;;3.60;99.90;;;;;;5075096;28;20229;-75
2023/12/05 08:28:20;;;;;;;10.60;6.22;;;3.70;99.90;;;;;;5074638;28;20209;-75
2023/12/05 08:30:49;;;;;;;11.38;6.43;;;3.80;99.90;;;;;;5075086;28;20229;-74
2023/12/05 08:33:17;;;;;;;7.80;5.85;;;3.80;99.90;;;;;;5074825;28;20212;-72
2023/12/05 08:35:45;;;;;;;10.15;6.35;;;3.80;99.90;;;;;;5074309;28;20201;-74
2023/12/05 08:38:13;;;;;;;9.75;6.32;;;3.90;99.90;;;;;;5074682;28;20237;-74
2023/12/05 08:40:41;;;;;;;10.38;6.13;;;3.90;99.90;;;;;;5074446;28;20229;-74
2023/12/05 08:43:10;;;;;;;12.95;5.55;;;3.90;99.90;;;;;;5074883;28;20240;-74
2023/12/05 08:45:38;;;;;;;10.23;5.40;;;4.00;99.90;;;;;;5074769;28;20251;-74
2023/12/05 08:48:07;;;;;;;9.05;5.63;;;4.00;99.90;;;;;;5074793;28;20205;-75
2023/12/05 08:50:35;;;;;;;9.50;5.47;;;4.10;99.90;;;;;;5074482;28;20225;-72
2023/12/05 08:53:04;;;;;;;7.85;5.53;;;4.10;99.90;;;;;;5074481;28;20251;-74
2023/12/05 08:55:31;;;;;;;14.48;5.55;;;4.10;99.90;;;;;;5074291;28;20688;-75
2023/12/05 08:57:59;;;;;;;7.13;4.72;;;4.10;99.90;;;;;;5074593;28;20595;-74
2023/12/05 09:00:27;;;;;;;7.35;4.70;;;4.10;99.90;;;;;;5074041;28;20255;-74
2023/12/05 09:02:55;;;;;;;8.88;4.95;;;4.20;99.90;;;;;;5074362;28;20206;-73
2023/12/05 09:05:24;;;;;;;8.20;4.50;;;4.20;99.90;;;;;;5072988;28;20205;-75
2023/12/05 09:07:53;;;;;;;6.18;4.80;;;4.20;99.90;;;;;;5074274;28;20296;-74
2023/12/05 09:10:21;;;;;;;9.98;4.40;;;4.30;99.90;;;;;;5073927;28;20209;-75
2023/12/05 09:12:49;;;;;;;5.43;4.03;;;4.30;99.90;;;;;;5074074;28;20683;-75
2023/12/05 09:15:16;;;;;;;8.40;4.75;;;4.20;99.90;;;;;;5073736;28;20255;-75
2023/12/05 09:17:45;;;;;;;7.70;4.65;;;4.30;99.90;;;;;;5074243;28;20648;-75
2023/12/05 09:20:13;;;;;;;8.85;4.45;;;4.30;99.90;;;;;;5073635;28;20702;-74
2023/12/05 09:22:42;;;;;;;9.15;3.80;;;4.30;99.90;;;;;;5073888;28;20773;-75
2023/12/05 09:25:10;;;;;;;6.57;4.45;;;4.30;99.90;;;;;;5073968;28;20209;-75
2023/12/05 09:27:38;;;;;;;8.43;3.70;;;4.30;99.90;;;;;;5074096;28;20205;-74
2023/12/05 09:30:07;;;;;;;5.20;3.63;;;4.40;99.90;;;;;;5073589;28;20255;-74
2023/12/05 09:32:35;;;;;;;7.07;3.92;;;4.40;99.90;;;;;;5073611;28;20208;-74
2023/12/05 09:35:04;;;;;;;4.53;3.28;;;4.50;99.90;;;;;;5073525;28;20205;-75
2023/12/05 09:37:32;;;;;;;4.68;3.60;;;4.50;99.90;;;;;;5073864;28;20214;-74
2023/12/05 09:40:01;;;;;;;8.60;3.25;;;4.50;99.90;;;;;;5073363;28;20330;-75
2023/12/05 09:42:29;;;;;;;6.55;2.92;;;4.60;99.90;;;;;;5073408;28;20743;-75
2023/12/05 09:44:58;;;;;;;5.63;3.42;;;4.60;99.90;;;;;;5073378;28;20667;-74
2023/12/05 09:47:26;;;;;;;3.25;2.95;;;4.60;99.90;;;;;;5073245;28;20251;-75
2023/12/05 09:49:53;;;;;;;3.33;2.55;;;4.60;99.90;;;;;;5073462;28;20201;-75
2023/12/05 09:52:21;;;;;;;6.10;3.10;;;4.50;99.90;;;;;;5073310;28;20283;-75
2023/12/05 09:54:49;;;;;;;131.05;38.10;;;4.60;99.90;;;;;;5073300;28;20280;-75
2023/12/05 09:57:18;;;;;;;44.45;14.48;;;4.70;99.90;;;;;;5073209;28;20247;-75
2023/12/05 09:59:46;;;;;;;7.88;3.72;;;4.70;99.90;;;;;;5072992;28;20244;-74
2023/12/05 10:02:15;;;;;;;4.28;3.30;;;4.80;99.90;;;;;;5072820;28;20316;-74
2023/12/05 10:04:44;;;;;;;7.43;2.75;;;4.70;99.90;;;;;;5072866;28;20639;-75
2023/12/05 10:07:16;;;;;;;5.32;2.58;;;4.80;99.90;;;;;;5072273;28;20201;-73
2023/12/05 10:09:44;;;;;;;4.25;2.42;;;4.80;99.90;;;;;;5071897;28;20205;-74
2023/12/05 10:12:12;;;;;;;7.05;2.28;;;4.90;99.90;;;;;;5071352;28;20371;-74
2023/12/05 10:14:42;;;;;;;8.10;2.88;;;4.90;99.90;;;;;;5071781;28;20322;-74
2023/12/05 10:17:10;;;;;;;3.28;2.38;;;5.00;99.90;;;;;;5072394;28;20272;-74
2023/12/05 10:19:39;;;;;;;3.25;2.10;;;5.00;99.90;;;;;;5072415;28;20225;-75
2023/12/05 10:22:07;;;;;;;6.68;2.13;;;5.10;99.90;;;;;;5072392;28;20224;-74
2023/12/05 10:24:42;;;;;;;2.15;1.98;;;5.10;99.90;;;;;;5072556;28;20292;-73
2023/12/05 10:27:11;;;;;;;6.45;1.70;;;5.10;99.90;;;;;;5072062;28;20743;-75
2023/12/05 10:29:39;;;;;;;3.15;2.20;;;5.10;99.90;;;;;;5072521;28;20201;-75
2023/12/05 10:32:10;;;;;;;2.15;1.75;;;5.10;99.90;;;;;;5072494;28;20253;-74
2023/12/05 10:34:48;;;;;;;6.25;1.77;;;5.10;99.90;;;;;;5065106;28;20220;-75
2023/12/05 10:37:20;;;;;;;2.13;1.80;;;5.10;99.90;;;;;;5072590;28;20200;-75
2023/12/05 10:39:49;;;;;;;3.35;1.95;;;5.20;99.90;;;;;;5072437;28;20275;-75
2023/12/05 10:42:17;;;;;;;3.05;2.05;;;5.20;99.90;;;;;;5072398;28;20225;-75
2023/12/05 10:44:45;;;;;;;2.55;1.70;;;5.20;99.90;;;;;;5072789;28;20288;-75
2023/12/05 10:47:14;;;;;;;5.07;1.98;;;5.20;99.90;;;;;;5070566;28;20295;-75
2023/12/05 10:49:48;;;;;;;3.33;2.05;;;5.30;99.90;;;;;;5070336;28;20205;-74
2023/12/05 10:52:16;;;;;;;7.22;2.08;;;5.40;99.90;;;;;;5072042;28;20598;-73
2023/12/05 10:54:44;;;;;;;3.75;1.80;;;5.50;99.90;;;;;;5072549;28;20213;-74
2023/12/05 10:57:12;;;;;;;4.75;1.65;;;5.50;99.90;;;;;;5072796;28;20228;-74
2023/12/05 10:59:40;;;;;;;3.60;1.88;;;5.60;99.90;;;;;;5070837;28;20312;-75
2023/12/05 11:02:15;;;;;;;5.82;1.92;;;5.60;99.90;;;;;;5072340;28;20236;-73
2023/12/05 11:04:43;;;;;;;1.67;1.38;;;5.60;99.90;;;;;;5066056;28;20588;-75
2023/12/05 11:07:11;;;;;;;1.52;1.17;;;5.70;99.90;;;;;;5072319;28;20233;-75
2023/12/05 11:09:42;;;;;;;2.95;1.70;;;5.70;99.90;;;;;;5070491;28;20209;-74
2023/12/05 11:12:10;;;;;;;3.58;1.52;;;5.70;99.90;;;;;;5068488;28;20758;-75
2023/12/05 11:14:40;;;;;;;3.83;1.70;;;5.70;99.90;;;;;;5063990;28;20252;-75
2023/12/05 11:17:11;;;;;;;2.13;1.50;;;5.80;99.90;;;;;;5072017;28;20232;-75
2023/12/05 11:19:47;;;;;;;2.88;1.40;;;5.80;99.90;;;;;;5072165;28;20267;-74
2023/12/05 11:22:22;;;;;;;4.05;1.40;;;5.80;99.90;;;;;;5072179;28;20229;-75
2023/12/05 11:25:00;;;;;;;4.50;1.20;;;5.90;99.90;;;;;;5072153;28;20240;-74
2023/12/05 11:27:36;;;;;;;1.50;0.90;;;6.00;99.90;;;;;;5071552;28;20250;-75
2023/12/05 11:30:13;;;;;;;1.05;1.05;;;6.00;99.90;;;;;;5072170;28;20227;-74
2023/12/05 11:32:44;;;;;;;1.30;1.23;;;5.90;99.90;;;;;;5072217;28;20658;-75
2023/12/05 11:35:16;;;;;;;4.70;0.98;;;5.90;99.90;;;;;;5071951;28;20212;-74
2023/12/05 11:37:57;;;;;;;2.63;1.20;;;5.90;99.90;;;;;;5072033;28;20297;-75
2023/12/05 11:40:25;;;;;;;4.10;1.05;;;5.90;99.90;;;;;;5066710;28;20282;-74
2023/12/05 11:43:09;;;;;;;2.53;1.20;;;5.80;99.90;;;;;;5072102;28;20248;-74
2023/12/05 11:45:38;;;;;;;1.17;1.08;;;5.80;99.90;;;;;;5071869;28;20254;-73
2023/12/05 11:48:06;;;;;;;4.57;1.08;;;5.80;99.90;;;;;;5072052;28;20233;-74
2023/12/05 11:50:42;;;;;;;2.67;0.90;;;5.80;99.90;;;;;;5063397;28;20221;-75
2023/12/05 11:53:11;;;;;;;3.70;0.88;;;5.80;99.90;;;;;;5071883;28;20228;-75
2023/12/05 11:55:41;;;;;;;1.20;1.10;;;5.80;99.90;;;;;;5063511;28;20675;-75
2023/12/05 11:58:27;;;;;;;2.60;0.90;;;5.80;99.90;;;;;;5072131;28;20300;-75
2023/12/05 12:01:02;;;;;;;1.75;1.13;;;5.80;99.90;;;;;;5065630;28;20502;-75
2023/12/05 12:03:50;;;;;;;5.05;1.08;;;5.90;99.90;;;;;;5071741;28;20227;-74
2023/12/05 12:06:20;;;;;;;4.82;1.05;;;5.90;99.90;;;;;;5071920;28;20205;-74
2023/12/05 12:08:51;;;;;;;1.35;1.30;;;6.00;99.90;;;;;;5069492;28;20330;-71
2023/12/05 12:11:20;;;;;;;3.30;1.33;;;6.20;99.90;;;;;;5068447;28;20312;-71
2023/12/05 12:13:49;;;;;;;3.33;1.25;;;6.70;99.90;;;;;;5069095;28;20217;-72
2023/12/05 12:16:18;;;;;;;1.45;0.80;;;7.10;99.90;;;;;;5070961;28;20209;-72
2023/12/05 12:18:46;;;;;;;3.75;1.10;;;7.30;99.90;;;;;;5070693;28;20206;-71
2023/12/05 12:21:23;;;;;;;4.82;1.13;;;7.50;99.90;;;;;;5070616;28;20232;-72
2023/12/05 12:23:55;;;;;;;2.30;1.17;;;7.70;99.90;;;;;;5070355;28;20236;-72
2023/12/05 12:26:23;;;;;;;0.95;0.85;;;7.90;99.90;;;;;;5073039;28;20267;-75
2023/12/05 12:28:51;;;;;;;3.80;1.10;;;7.90;99.90;;;;;;5071507;28;20201;-74
2023/12/05 12:31:24;;;;;;;3.75;1.10;;;7.60;99.90;;;;;;5070867;28;20217;-74
2023/12/05 12:33:52;;;;;;;1.52;1.10;;;7.30;99.90;;;;;;5071439;28;20205;-75
2023/12/05 12:36:19;;;;;;;3.05;1.25;;;7.00;99.90;;;;;;5071482;28;20216;-75
2023/12/05 12:38:49;;;;;;;4.03;1.10;;;6.80;99.90;;;;;;5072265;28;20716;-75
2023/12/05 12:41:17;;;;;;;2.15;1.10;;;6.60;99.90;;;;;;5074646;28;20225;-75
2023/12/05 12:43:46;;;;;;;2.28;1.13;;;6.50;99.90;;;;;;5074940;28;20209;-74
2023/12/05 12:46:14;;;;;;;3.90;0.95;;;6.40;99.90;;;;;;5074951;28;20237;-75
2023/12/05 12:48:43;;;;;;;3.70;1.20;;;6.30;99.90;;;;;;5074090;28;20863;-74
2023/12/05 12:51:11;;;;;;;3.17;1.13;;;6.30;99.90;;;;;;5068761;28;20221;-74
2023/12/05 12:53:39;;;;;;;2.30;1.23;;;6.30;99.90;;;;;;5072283;28;20301;-74